sensor_id;sensor_type;location;lat;lon;timestamp;temperature;humidity
27633;DHT22;15046;50.930;13.334;2023-02-17T00:02:05;8.00;85.90
27633;DHT22;15046;50.930;13.334;2023-02-17T00:04:32;8.00;86.00
27633;DHT22;15046;50.930;13.334;2023-02-17T00:06:58;7.90;86.10
27633;DHT22;15046;50.930;13.334;2023-02-17T00:09:24;7.90;86.10
27633;DHT22;15046;50.930;13.334;2023-02-17T00:11:51;7.90;86.40
27633;DHT22;15046;50.930;13.334;2023-02-17T00:14:17;7.90;86.50
27633;DHT22;15046;50.930;13.334;2023-02-17T00:16:43;8.00;86.60
27633;DHT22;15046;50.930;13.334;2023-02-17T00:19:11;8.00;86.50
27633;DHT22;15046;50.930;13.334;2023-02-17T00:21:59;8.10;86.60
27633;DHT22;15046;50.930;13.334;2023-02-17T00:24:28;8.20;86.50
27633;DHT22;15046;50.930;13.334;2023-02-17T00:26:54;8.20;86.40
27633;DHT22;15046;50.930;13.334;2023-02-17T00:29:20;8.20;86.40
27633;DHT22;15046;50.930;13.334;2023-02-17T00:31:46;8.20;86.30
27633;DHT22;15046;50.930;13.334;2023-02-17T00:34:12;8.20;86.40
27633;DHT22;15046;50.930;13.334;2023-02-17T00:36:39;8.20;86.60
27633;DHT22;15046;50.930;13.334;2023-02-17T00:39:05;8.20;86.60
27633;DHT22;15046;50.930;13.334;2023-02-17T00:41:31;8.30;86.60
27633;DHT22;15046;50.930;13.334;2023-02-17T00:43:58;8.20;86.50
27633;DHT22;15046;50.930;13.334;2023-02-17T00:46:24;8.20;86.60
27633;DHT22;15046;50.930;13.334;2023-02-17T00:48:51;8.20;86.70
27633;DHT22;15046;50.930;13.334;2023-02-17T00:51:18;8.20;86.80
27633;DHT22;15046;50.930;13.334;2023-02-17T00:53:44;8.30;86.90
27633;DHT22;15046;50.930;13.334;2023-02-17T00:56:11;8.30;86.90
27633;DHT22;15046;50.930;13.334;2023-02-17T00:58:37;8.30;86.80
27633;DHT22;15046;50.930;13.334;2023-02-17T01:01:03;8.40;86.90
27633;DHT22;15046;50.930;13.334;2023-02-17T01:03:29;8.40;86.90
27633;DHT22;15046;50.930;13.334;2023-02-17T01:05:56;8.40;87.00
27633;DHT22;15046;50.930;13.334;2023-02-17T01:08:22;8.40;87.40
27633;DHT22;15046;50.930;13.334;2023-02-17T01:10:49;8.40;87.70
27633;DHT22;15046;50.930;13.334;2023-02-17T01:13:15;8.30;87.90
27633;DHT22;15046;50.930;13.334;2023-02-17T01:15:45;8.30;88.10
27633;DHT22;15046;50.930;13.334;2023-02-17T01:18:10;8.40;88.40
27633;DHT22;15046;50.930;13.334;2023-02-17T01:20:37;8.40;88.50
27633;DHT22;15046;50.930;13.334;2023-02-17T01:23:04;8.30;88.80
27633;DHT22;15046;50.930;13.334;2023-02-17T01:25:30;8.40;89.10
27633;DHT22;15046;50.930;13.334;2023-02-17T01:27:56;8.40;89.20
27633;DHT22;15046;50.930;13.334;2023-02-17T01:30:22;8.40;89.40
27633;DHT22;15046;50.930;13.334;2023-02-17T01:32:48;8.40;89.60
27633;DHT22;15046;50.930;13.334;2023-02-17T01:35:14;8.40;89.80
27633;DHT22;15046;50.930;13.334;2023-02-17T01:37:40;8.40;89.90
27633;DHT22;15046;50.930;13.334;2023-02-17T01:40:06;8.40;90.00
27633;DHT22;15046;50.930;13.334;2023-02-17T01:42:32;8.40;90.10
27633;DHT22;15046;50.930;13.334;2023-02-17T01:47:49;8.40;90.20
27633;DHT22;15046;50.930;13.334;2023-02-17T01:50:19;8.40;90.20
27633;DHT22;15046;50.930;13.334;2023-02-17T01:52:46;8.40;90.30
27633;DHT22;15046;50.930;13.334;2023-02-17T01:55:16;8.40;90.30
27633;DHT22;15046;50.930;13.334;2023-02-17T01:57:44;8.40;90.50
27633;DHT22;15046;50.930;13.334;2023-02-17T02:00:12;8.40;90.50
27633;DHT22;15046;50.930;13.334;2023-02-17T02:02:40;8.40;90.70
27633;DHT22;15046;50.930;13.334;2023-02-17T02:05:07;8.40;90.70
27633;DHT22;15046;50.930;13.334;2023-02-17T02:07:37;8.40;90.80
27633;DHT22;15046;50.930;13.334;2023-02-17T02:10:04;8.40;90.90
27633;DHT22;15046;50.930;13.334;2023-02-17T02:12:35;8.40;91.00
27633;DHT22;15046;50.930;13.334;2023-02-17T02:26:08;8.20;91.40
27633;DHT22;15046;50.930;13.334;2023-02-17T02:28:47;8.30;91.60
27633;DHT22;15046;50.930;13.334;2023-02-17T02:36:33;8.40;91.60
27633;DHT22;15046;50.930;13.334;2023-02-17T02:39:09;8.30;91.50
27633;DHT22;15046;50.930;13.334;2023-02-17T02:41:39;8.10;92.00
27633;DHT22;15046;50.930;13.334;2023-02-17T02:44:07;7.90;92.90
27633;DHT22;15046;50.930;13.334;2023-02-17T02:46:34;7.60;93.90
27633;DHT22;15046;50.930;13.334;2023-02-17T02:49:00;7.50;94.90
27633;DHT22;15046;50.930;13.334;2023-02-17T02:51:48;7.30;95.90
27633;DHT22;15046;50.930;13.334;2023-02-17T02:57:32;7.20;98.20
27633;DHT22;15046;50.930;13.334;2023-02-17T03:06:05;7.30;99.90
27633;DHT22;15046;50.930;13.334;2023-02-17T03:08:45;7.50;99.90
27633;DHT22;15046;50.930;13.334;2023-02-17T03:11:12;7.50;99.90
27633;DHT22;15046;50.930;13.334;2023-02-17T03:13:38;7.60;99.90
27633;DHT22;15046;50.930;13.334;2023-02-17T03:16:06;7.70;99.90
27633;DHT22;15046;50.930;13.334;2023-02-17T03:18:33;7.70;99.90
27633;DHT22;15046;50.930;13.334;2023-02-17T03:21:09;7.80;99.90
27633;DHT22;15046;50.930;13.334;2023-02-17T03:23:35;7.80;99.90
27633;DHT22;15046;50.930;13.334;2023-02-17T03:26:01;7.80;99.90
27633;DHT22;15046;50.930;13.334;2023-02-17T03:28:27;7.90;99.90
27633;DHT22;15046;50.930;13.334;2023-02-17T03:30:53;7.90;99.90
27633;DHT22;15046;50.930;13.334;2023-02-17T03:33:18;8.00;99.90
27633;DHT22;15046;50.930;13.334;2023-02-17T03:35:44;7.90;99.90
27633;DHT22;15046;50.930;13.334;2023-02-17T03:38:10;8.00;99.90
27633;DHT22;15046;50.930;13.334;2023-02-17T03:40:36;8.00;99.90
27633;DHT22;15046;50.930;13.334;2023-02-17T03:43:01;8.00;99.90
27633;DHT22;15046;50.930;13.334;2023-02-17T03:45:27;8.00;99.90
27633;DHT22;15046;50.930;13.334;2023-02-17T03:47:53;8.00;99.90
27633;DHT22;15046;50.930;13.334;2023-02-17T03:50:18;8.00;99.90
27633;DHT22;15046;50.930;13.334;2023-02-17T03:52:44;8.00;99.90
27633;DHT22;15046;50.930;13.334;2023-02-17T03:55:10;7.90;99.90
27633;DHT22;15046;50.930;13.334;2023-02-17T03:57:36;7.90;99.90
27633;DHT22;15046;50.930;13.334;2023-02-17T04:00:04;7.90;99.90
27633;DHT22;15046;50.930;13.334;2023-02-17T04:02:30;7.90;99.90
27633;DHT22;15046;50.930;13.334;2023-02-17T04:04:55;7.80;99.90
27633;DHT22;15046;50.930;13.334;2023-02-17T04:07:21;7.80;99.90
27633;DHT22;15046;50.930;13.334;2023-02-17T04:09:47;7.80;99.90
27633;DHT22;15046;50.930;13.334;2023-02-17T04:12:13;7.90;99.90
27633;DHT22;15046;50.930;13.334;2023-02-17T04:14:38;7.80;99.90
27633;DHT22;15046;50.930;13.334;2023-02-17T04:17:04;7.70;99.90
27633;DHT22;15046;50.930;13.334;2023-02-17T04:19:30;7.60;99.90
27633;DHT22;15046;50.930;13.334;2023-02-17T04:21:56;7.40;99.90
27633;DHT22;15046;50.930;13.334;2023-02-17T04:24:21;7.30;99.90
27633;DHT22;15046;50.930;13.334;2023-02-17T04:26:47;7.20;99.90
27633;DHT22;15046;50.930;13.334;2023-02-17T04:29:13;7.30;99.90
27633;DHT22;15046;50.930;13.334;2023-02-17T04:31:39;7.30;99.90
27633;DHT22;15046;50.930;13.334;2023-02-17T04:34:04;7.40;99.90
27633;DHT22;15046;50.930;13.334;2023-02-17T04:36:30;7.40;99.90
27633;DHT22;15046;50.930;13.334;2023-02-17T04:38:56;7.50;99.90
27633;DHT22;15046;50.930;13.334;2023-02-17T04:41:22;7.50;99.90
27633;DHT22;15046;50.930;13.334;2023-02-17T04:43:47;7.60;99.90
27633;DHT22;15046;50.930;13.334;2023-02-17T04:46:13;7.60;99.90
27633;DHT22;15046;50.930;13.334;2023-02-17T04:48:39;7.60;99.90
27633;DHT22;15046;50.930;13.334;2023-02-17T04:51:05;7.50;99.90
27633;DHT22;15046;50.930;13.334;2023-02-17T04:53:30;7.40;99.90
27633;DHT22;15046;50.930;13.334;2023-02-17T04:55:56;7.40;99.90
27633;DHT22;15046;50.930;13.334;2023-02-17T04:58:22;7.30;99.90
27633;DHT22;15046;50.930;13.334;2023-02-17T05:00:49;7.30;99.90
27633;DHT22;15046;50.930;13.334;2023-02-17T05:03:16;7.30;99.90
27633;DHT22;15046;50.930;13.334;2023-02-17T05:05:42;7.30;99.90
27633;DHT22;15046;50.930;13.334;2023-02-17T05:08:08;7.20;99.90
27633;DHT22;15046;50.930;13.334;2023-02-17T05:10:33;7.20;99.90
27633;DHT22;15046;50.930;13.334;2023-02-17T05:12:59;7.20;99.90
27633;DHT22;15046;50.930;13.334;2023-02-17T05:15:25;7.20;99.90
27633;DHT22;15046;50.930;13.334;2023-02-17T05:17:52;7.20;99.90
27633;DHT22;15046;50.930;13.334;2023-02-17T05:20:17;7.20;99.90
27633;DHT22;15046;50.930;13.334;2023-02-17T05:22:43;7.20;99.90
27633;DHT22;15046;50.930;13.334;2023-02-17T05:25:09;7.20;99.90
27633;DHT22;15046;50.930;13.334;2023-02-17T05:27:35;7.20;99.90
27633;DHT22;15046;50.930;13.334;2023-02-17T05:30:01;7.10;99.90
27633;DHT22;15046;50.930;13.334;2023-02-17T05:32:27;7.10;99.90
27633;DHT22;15046;50.930;13.334;2023-02-17T05:34:53;7.10;99.90
27633;DHT22;15046;50.930;13.334;2023-02-17T05:37:18;7.10;99.90
27633;DHT22;15046;50.930;13.334;2023-02-17T05:39:44;7.10;99.90
27633;DHT22;15046;50.930;13.334;2023-02-17T05:42:10;7.10;99.90
27633;DHT22;15046;50.930;13.334;2023-02-17T05:44:36;7.10;99.90
27633;DHT22;15046;50.930;13.334;2023-02-17T05:47:02;7.10;99.90
27633;DHT22;15046;50.930;13.334;2023-02-17T05:49:28;7.10;99.90
27633;DHT22;15046;50.930;13.334;2023-02-17T05:51:53;7.10;99.90
27633;DHT22;15046;50.930;13.334;2023-02-17T05:54:21;7.10;99.90
27633;DHT22;15046;50.930;13.334;2023-02-17T05:56:46;7.10;99.90
27633;DHT22;15046;50.930;13.334;2023-02-17T05:59:12;7.10;99.90
27633;DHT22;15046;50.930;13.334;2023-02-17T06:01:38;7.00;99.90
27633;DHT22;15046;50.930;13.334;2023-02-17T06:04:04;7.00;99.90
27633;DHT22;15046;50.930;13.334;2023-02-17T06:06:30;7.00;99.90
27633;DHT22;15046;50.930;13.334;2023-02-17T06:08:56;7.00;99.90
27633;DHT22;15046;50.930;13.334;2023-02-17T06:11:22;7.00;99.90
27633;DHT22;15046;50.930;13.334;2023-02-17T06:13:47;7.00;99.90
27633;DHT22;15046;50.930;13.334;2023-02-17T06:16:13;7.00;99.90
27633;DHT22;15046;50.930;13.334;2023-02-17T06:18:39;7.00;99.90
27633;DHT22;15046;50.930;13.334;2023-02-17T06:21:05;7.00;99.90
27633;DHT22;15046;50.930;13.334;2023-02-17T06:23:31;7.00;99.90
27633;DHT22;15046;50.930;13.334;2023-02-17T06:25:56;7.00;99.90
27633;DHT22;15046;50.930;13.334;2023-02-17T06:28:22;7.00;99.90
27633;DHT22;15046;50.930;13.334;2023-02-17T06:30:48;7.00;99.90
27633;DHT22;15046;50.930;13.334;2023-02-17T06:33:14;7.00;99.90
27633;DHT22;15046;50.930;13.334;2023-02-17T06:35:40;7.10;99.90
27633;DHT22;15046;50.930;13.334;2023-02-17T06:38:06;7.10;99.90
27633;DHT22;15046;50.930;13.334;2023-02-17T06:40:31;7.10;99.90
27633;DHT22;15046;50.930;13.334;2023-02-17T06:42:57;7.10;99.90
27633;DHT22;15046;50.930;13.334;2023-02-17T06:45:23;7.10;99.90
27633;DHT22;15046;50.930;13.334;2023-02-17T06:47:49;7.10;99.90
27633;DHT22;15046;50.930;13.334;2023-02-17T06:50:15;7.10;99.90
27633;DHT22;15046;50.930;13.334;2023-02-17T06:52:42;7.10;99.90
27633;DHT22;15046;50.930;13.334;2023-02-17T06:55:09;7.10;99.90
27633;DHT22;15046;50.930;13.334;2023-02-17T06:57:35;7.10;99.90
27633;DHT22;15046;50.930;13.334;2023-02-17T07:00:01;7.10;99.90
27633;DHT22;15046;50.930;13.334;2023-02-17T07:02:27;7.10;99.90
27633;DHT22;15046;50.930;13.334;2023-02-17T07:04:53;7.10;99.90
27633;DHT22;15046;50.930;13.334;2023-02-17T07:07:18;7.10;99.90
27633;DHT22;15046;50.930;13.334;2023-02-17T07:09:44;7.10;99.90
27633;DHT22;15046;50.930;13.334;2023-02-17T07:12:10;7.10;99.90
27633;DHT22;15046;50.930;13.334;2023-02-17T07:14:36;7.10;99.90
27633;DHT22;15046;50.930;13.334;2023-02-17T07:17:02;7.10;99.90
27633;DHT22;15046;50.930;13.334;2023-02-17T07:19:28;7.10;99.90
27633;DHT22;15046;50.930;13.334;2023-02-17T07:21:54;7.10;99.90
27633;DHT22;15046;50.930;13.334;2023-02-17T07:24:20;7.10;99.90
27633;DHT22;15046;50.930;13.334;2023-02-17T07:26:46;7.10;99.90
27633;DHT22;15046;50.930;13.334;2023-02-17T07:29:12;7.10;99.90
27633;DHT22;15046;50.930;13.334;2023-02-17T07:31:38;7.10;99.90
27633;DHT22;15046;50.930;13.334;2023-02-17T07:34:04;7.10;99.90
27633;DHT22;15046;50.930;13.334;2023-02-17T07:36:30;7.10;99.90
27633;DHT22;15046;50.930;13.334;2023-02-17T07:38:57;7.10;99.90
27633;DHT22;15046;50.930;13.334;2023-02-17T07:41:24;7.10;99.90
27633;DHT22;15046;50.930;13.334;2023-02-17T07:43:56;7.10;99.90
27633;DHT22;15046;50.930;13.334;2023-02-17T07:46:23;7.10;99.90
27633;DHT22;15046;50.930;13.334;2023-02-17T07:48:49;7.10;99.90
27633;DHT22;15046;50.930;13.334;2023-02-17T07:51:18;7.20;99.90
27633;DHT22;15046;50.930;13.334;2023-02-17T07:53:46;7.20;99.90
27633;DHT22;15046;50.930;13.334;2023-02-17T07:56:14;7.20;99.90
27633;DHT22;15046;50.930;13.334;2023-02-17T07:58:42;7.30;99.90
27633;DHT22;15046;50.930;13.334;2023-02-17T08:01:21;7.30;99.90
27633;DHT22;15046;50.930;13.334;2023-02-17T08:03:49;7.30;99.90
27633;DHT22;15046;50.930;13.334;2023-02-17T08:06:19;7.30;99.90
27633;DHT22;15046;50.930;13.334;2023-02-17T08:08:45;7.30;99.90
27633;DHT22;15046;50.930;13.334;2023-02-17T08:11:30;7.30;99.90
27633;DHT22;15046;50.930;13.334;2023-02-17T08:14:15;7.40;99.90
27633;DHT22;15046;50.930;13.334;2023-02-17T08:16:41;7.40;99.90
27633;DHT22;15046;50.930;13.334;2023-02-17T08:19:06;7.40;99.90
27633;DHT22;15046;50.930;13.334;2023-02-17T08:21:32;7.50;99.90
27633;DHT22;15046;50.930;13.334;2023-02-17T08:23:58;7.50;99.90
27633;DHT22;15046;50.930;13.334;2023-02-17T08:26:24;7.60;99.90
27633;DHT22;15046;50.930;13.334;2023-02-17T08:28:50;7.60;99.90
27633;DHT22;15046;50.930;13.334;2023-02-17T08:31:29;7.60;99.90
27633;DHT22;15046;50.930;13.334;2023-02-17T08:33:55;7.70;99.90
27633;DHT22;15046;50.930;13.334;2023-02-17T08:36:23;7.70;99.90
27633;DHT22;15046;50.930;13.334;2023-02-17T08:38:50;7.70;99.90
27633;DHT22;15046;50.930;13.334;2023-02-17T08:43:48;7.70;99.90
27633;DHT22;15046;50.930;13.334;2023-02-17T08:46:15;7.70;99.90
27633;DHT22;15046;50.930;13.334;2023-02-17T08:48:41;7.70;99.90
27633;DHT22;15046;50.930;13.334;2023-02-17T08:51:11;7.70;99.90
27633;DHT22;15046;50.930;13.334;2023-02-17T08:53:36;7.80;99.90
27633;DHT22;15046;50.930;13.334;2023-02-17T08:56:02;7.80;99.90
27633;DHT22;15046;50.930;13.334;2023-02-17T08:58:28;7.80;99.90
27633;DHT22;15046;50.930;13.334;2023-02-17T09:00:54;7.80;99.90
27633;DHT22;15046;50.930;13.334;2023-02-17T09:03:20;8.00;99.90
27633;DHT22;15046;50.930;13.334;2023-02-17T09:05:45;8.10;99.90
27633;DHT22;15046;50.930;13.334;2023-02-17T09:08:14;8.20;99.90
27633;DHT22;15046;50.930;13.334;2023-02-17T09:10:40;8.30;99.90
27633;DHT22;15046;50.930;13.334;2023-02-17T09:13:06;8.40;99.90
27633;DHT22;15046;50.930;13.334;2023-02-17T09:15:31;8.50;99.90
27633;DHT22;15046;50.930;13.334;2023-02-17T09:17:57;8.70;99.90
27633;DHT22;15046;50.930;13.334;2023-02-17T09:20:23;8.80;99.90
27633;DHT22;15046;50.930;13.334;2023-02-17T09:22:49;8.90;99.90
27633;DHT22;15046;50.930;13.334;2023-02-17T09:25:14;9.10;99.90
27633;DHT22;15046;50.930;13.334;2023-02-17T09:27:40;9.30;99.90
27633;DHT22;15046;50.930;13.334;2023-02-17T09:30:06;9.40;99.90
27633;DHT22;15046;50.930;13.334;2023-02-17T09:32:32;9.50;99.90
27633;DHT22;15046;50.930;13.334;2023-02-17T09:34:58;9.50;99.90
27633;DHT22;15046;50.930;13.334;2023-02-17T09:37:26;9.50;99.90
27633;DHT22;15046;50.930;13.334;2023-02-17T09:39:52;9.60;99.90
27633;DHT22;15046;50.930;13.334;2023-02-17T09:42:23;9.60;99.90
27633;DHT22;15046;50.930;13.334;2023-02-17T09:45:04;9.60;99.90
27633;DHT22;15046;50.930;13.334;2023-02-17T09:47:43;9.60;99.90
27633;DHT22;15046;50.930;13.334;2023-02-17T09:50:15;9.60;99.90
27633;DHT22;15046;50.930;13.334;2023-02-17T09:53:02;9.50;99.90
27633;DHT22;15046;50.930;13.334;2023-02-17T09:55:33;9.50;99.90
27633;DHT22;15046;50.930;13.334;2023-02-17T10:01:04;9.20;99.90
27633;DHT22;15046;50.930;13.334;2023-02-17T10:03:36;9.20;99.90
27633;DHT22;15046;50.930;13.334;2023-02-17T10:06:17;9.20;99.90
27633;DHT22;15046;50.930;13.334;2023-02-17T10:13:45;9.00;99.90
27633;DHT22;15046;50.930;13.334;2023-02-17T10:16:20;8.90;99.90
27633;DHT22;15046;50.930;13.334;2023-02-17T10:21:19;8.90;99.90
27633;DHT22;15046;50.930;13.334;2023-02-17T10:23:48;8.90;99.90
27633;DHT22;15046;50.930;13.334;2023-02-17T10:31:43;8.80;99.90
27633;DHT22;15046;50.930;13.334;2023-02-17T10:34:37;8.90;99.90
27633;DHT22;15046;50.930;13.334;2023-02-17T10:37:14;9.00;99.90
27633;DHT22;15046;50.930;13.334;2023-02-17T10:39:51;9.30;99.90
27633;DHT22;15046;50.930;13.334;2023-02-17T10:42:33;9.60;99.90
27633;DHT22;15046;50.930;13.334;2023-02-17T10:47:59;10.00;99.90
27633;DHT22;15046;50.930;13.334;2023-02-17T10:50:26;10.10;99.90
27633;DHT22;15046;50.930;13.334;2023-02-17T10:52:53;10.30;99.90
27633;DHT22;15046;50.930;13.334;2023-02-17T10:55:29;10.30;99.90
27633;DHT22;15046;50.930;13.334;2023-02-17T10:58:02;10.40;99.90
27633;DHT22;15046;50.930;13.334;2023-02-17T11:00:30;10.40;99.90
27633;DHT22;15046;50.930;13.334;2023-02-17T11:02:56;10.40;99.90
27633;DHT22;15046;50.930;13.334;2023-02-17T11:05:31;10.30;99.90
27633;DHT22;15046;50.930;13.334;2023-02-17T11:08:23;10.20;99.90
27633;DHT22;15046;50.930;13.334;2023-02-17T11:11:19;10.20;99.90
27633;DHT22;15046;50.930;13.334;2023-02-17T11:16:25;10.10;99.90
27633;DHT22;15046;50.930;13.334;2023-02-17T11:18:52;10.10;99.90
27633;DHT22;15046;50.930;13.334;2023-02-17T11:21:18;10.10;99.90
27633;DHT22;15046;50.930;13.334;2023-02-17T11:24:04;10.10;99.90
27633;DHT22;15046;50.930;13.334;2023-02-17T11:26:33;10.00;99.90
27633;DHT22;15046;50.930;13.334;2023-02-17T11:29:26;9.90;99.90
27633;DHT22;15046;50.930;13.334;2023-02-17T11:31:58;9.70;99.90
27633;DHT22;15046;50.930;13.334;2023-02-17T11:34:29;9.60;99.90
27633;DHT22;15046;50.930;13.334;2023-02-17T11:37:01;9.50;99.90
27633;DHT22;15046;50.930;13.334;2023-02-17T11:39:27;9.50;99.90
27633;DHT22;15046;50.930;13.334;2023-02-17T11:41:53;9.40;99.90
27633;DHT22;15046;50.930;13.334;2023-02-17T11:44:27;9.40;99.90
27633;DHT22;15046;50.930;13.334;2023-02-17T11:58:05;9.50;99.90
27633;DHT22;15046;50.930;13.334;2023-02-17T12:11:50;9.80;99.90
27633;DHT22;15046;50.930;13.334;2023-02-17T12:17:03;9.90;99.90
27633;DHT22;15046;50.930;13.334;2023-02-17T12:25:23;10.10;99.90
27633;DHT22;15046;50.930;13.334;2023-02-17T12:34:11;10.40;99.90
27633;DHT22;15046;50.930;13.334;2023-02-17T12:36:17;10.50;99.90
27633;DHT22;15046;50.930;13.334;2023-02-17T12:38:50;10.50;99.90
27633;DHT22;15046;50.930;13.334;2023-02-17T12:41:25;10.50;99.90
27633;DHT22;15046;50.930;13.334;2023-02-17T12:44:27;10.50;99.90
27633;DHT22;15046;50.930;13.334;2023-02-17T12:46:56;10.50;99.90
27633;DHT22;15046;50.930;13.334;2023-02-17T12:49:45;10.60;99.90
27633;DHT22;15046;50.930;13.334;2023-02-17T12:52:14;10.60;99.90
27633;DHT22;15046;50.930;13.334;2023-02-17T12:54:49;10.60;99.90
27633;DHT22;15046;50.930;13.334;2023-02-17T13:00:26;10.80;99.90
27633;DHT22;15046;50.930;13.334;2023-02-17T13:02:57;10.80;99.90
27633;DHT22;15046;50.930;13.334;2023-02-17T13:05:46;10.80;99.90
27633;DHT22;15046;50.930;13.334;2023-02-17T13:08:17;10.90;99.90
27633;DHT22;15046;50.930;13.334;2023-02-17T13:10:45;11.00;99.90
27633;DHT22;15046;50.930;13.334;2023-02-17T13:13:24;11.00;99.90
27633;DHT22;15046;50.930;13.334;2023-02-17T13:16:10;11.00;99.90
27633;DHT22;15046;50.930;13.334;2023-02-17T13:18:40;11.00;99.90
27633;DHT22;15046;50.930;13.334;2023-02-17T13:24:00;11.00;99.90
27633;DHT22;15046;50.930;13.334;2023-02-17T13:26:34;11.00;99.90
27633;DHT22;15046;50.930;13.334;2023-02-17T13:29:32;11.10;99.90
27633;DHT22;15046;50.930;13.334;2023-02-17T13:32:00;11.20;99.90
27633;DHT22;15046;50.930;13.334;2023-02-17T13:34:42;11.30;99.90
27633;DHT22;15046;50.930;13.334;2023-02-17T13:39:56;11.40;99.90
27633;DHT22;15046;50.930;13.334;2023-02-17T13:42:39;11.70;99.90
27633;DHT22;15046;50.930;13.334;2023-02-17T13:45:28;12.00;99.90
27633;DHT22;15046;50.930;13.334;2023-02-17T13:47:56;12.20;99.90
27633;DHT22;15046;50.930;13.334;2023-02-17T13:50:44;12.20;99.90
27633;DHT22;15046;50.930;13.334;2023-02-17T13:55:46;12.20;99.90
27633;DHT22;15046;50.930;13.334;2023-02-17T13:58:12;12.20;99.90
27633;DHT22;15046;50.930;13.334;2023-02-17T14:00:42;12.10;99.90
27633;DHT22;15046;50.930;13.334;2023-02-17T14:03:58;12.00;99.90
27633;DHT22;15046;50.930;13.334;2023-02-17T14:06:05;12.00;99.90
27633;DHT22;15046;50.930;13.334;2023-02-17T14:08:40;12.00;99.90
27633;DHT22;15046;50.930;13.334;2023-02-17T14:11:15;12.00;99.90
27633;DHT22;15046;50.930;13.334;2023-02-17T14:13:44;12.00;99.90
27633;DHT22;15046;50.930;13.334;2023-02-17T14:16:31;11.90;99.90
27633;DHT22;15046;50.930;13.334;2023-02-17T14:21:29;11.70;99.90
27633;DHT22;15046;50.930;13.334;2023-02-17T14:23:56;11.70;99.90
27633;DHT22;15046;50.930;13.334;2023-02-17T14:26:36;11.70;99.90
27633;DHT22;15046;50.930;13.334;2023-02-17T14:29:05;11.70;99.90
27633;DHT22;15046;50.930;13.334;2023-02-17T14:31:45;11.60;99.90
27633;DHT22;15046;50.930;13.334;2023-02-17T14:34:33;11.60;99.90
27633;DHT22;15046;50.930;13.334;2023-02-17T14:37:29;11.60;99.90
27633;DHT22;15046;50.930;13.334;2023-02-17T14:39:56;11.50;99.90
27633;DHT22;15046;50.930;13.334;2023-02-17T14:42:22;11.50;99.90
27633;DHT22;15046;50.930;13.334;2023-02-17T14:44:48;11.50;99.90
27633;DHT22;15046;50.930;13.334;2023-02-17T14:47:13;11.50;99.90
27633;DHT22;15046;50.930;13.334;2023-02-17T14:49:39;11.50;99.90
27633;DHT22;15046;50.930;13.334;2023-02-17T14:52:23;11.50;99.90
27633;DHT22;15046;50.930;13.334;2023-02-17T14:54:49;11.50;99.90
27633;DHT22;15046;50.930;13.334;2023-02-17T14:57:16;11.50;99.90
27633;DHT22;15046;50.930;13.334;2023-02-17T14:59:44;11.60;99.90
27633;DHT22;15046;50.930;13.334;2023-02-17T15:02:18;11.60;99.90
27633;DHT22;15046;50.930;13.334;2023-02-17T15:04:44;11.60;99.90
27633;DHT22;15046;50.930;13.334;2023-02-17T15:07:13;11.60;99.90
27633;DHT22;15046;50.930;13.334;2023-02-17T15:09:40;11.60;99.90
27633;DHT22;15046;50.930;13.334;2023-02-17T15:12:16;11.60;99.90
27633;DHT22;15046;50.930;13.334;2023-02-17T15:14:43;11.60;99.90
27633;DHT22;15046;50.930;13.334;2023-02-17T15:17:09;11.60;99.90
27633;DHT22;15046;50.930;13.334;2023-02-17T15:19:34;11.60;99.90
27633;DHT22;15046;50.930;13.334;2023-02-17T15:22:00;11.50;99.90
27633;DHT22;15046;50.930;13.334;2023-02-17T15:24:32;11.50;99.90
27633;DHT22;15046;50.930;13.334;2023-02-17T15:26:58;11.50;99.90
27633;DHT22;15046;50.930;13.334;2023-02-17T15:29:24;11.50;99.90
27633;DHT22;15046;50.930;13.334;2023-02-17T15:31:55;11.50;99.90
27633;DHT22;15046;50.930;13.334;2023-02-17T15:34:27;11.40;99.90
27633;DHT22;15046;50.930;13.334;2023-02-17T15:36:56;11.40;99.90
27633;DHT22;15046;50.930;13.334;2023-02-17T15:39:22;11.30;99.90
27633;DHT22;15046;50.930;13.334;2023-02-17T15:41:48;11.40;99.90
27633;DHT22;15046;50.930;13.334;2023-02-17T15:44:41;11.30;99.90
27633;DHT22;15046;50.930;13.334;2023-02-17T15:47:14;11.30;99.90
27633;DHT22;15046;50.930;13.334;2023-02-17T15:49:40;11.30;99.90
27633;DHT22;15046;50.930;13.334;2023-02-17T15:52:10;11.30;99.90
27633;DHT22;15046;50.930;13.334;2023-02-17T15:54:41;11.30;99.90
27633;DHT22;15046;50.930;13.334;2023-02-17T15:57:07;11.30;99.90
27633;DHT22;15046;50.930;13.334;2023-02-17T15:59:34;11.30;99.90
27633;DHT22;15046;50.930;13.334;2023-02-17T16:02:01;11.30;99.90
27633;DHT22;15046;50.930;13.334;2023-02-17T16:04:27;11.20;99.90
27633;DHT22;15046;50.930;13.334;2023-02-17T16:06:53;11.20;99.90
27633;DHT22;15046;50.930;13.334;2023-02-17T16:09:19;11.20;99.90
27633;DHT22;15046;50.930;13.334;2023-02-17T16:11:52;11.20;99.90
27633;DHT22;15046;50.930;13.334;2023-02-17T16:14:33;11.20;99.90
27633;DHT22;15046;50.930;13.334;2023-02-17T16:17:01;11.20;99.90
27633;DHT22;15046;50.930;13.334;2023-02-17T16:19:27;11.20;99.90
27633;DHT22;15046;50.930;13.334;2023-02-17T16:21:53;11.20;99.90
27633;DHT22;15046;50.930;13.334;2023-02-17T16:24:19;11.10;99.90
27633;DHT22;15046;50.930;13.334;2023-02-17T16:26:45;11.10;99.90
27633;DHT22;15046;50.930;13.334;2023-02-17T16:29:16;11.10;99.90
27633;DHT22;15046;50.930;13.334;2023-02-17T16:31:43;11.10;99.90
27633;DHT22;15046;50.930;13.334;2023-02-17T16:34:20;11.00;99.90
27633;DHT22;15046;50.930;13.334;2023-02-17T16:36:47;11.00;99.90
27633;DHT22;15046;50.930;13.334;2023-02-17T16:39:17;11.00;99.90
27633;DHT22;15046;50.930;13.334;2023-02-17T16:41:45;11.10;99.90
27633;DHT22;15046;50.930;13.334;2023-02-17T16:44:15;11.10;99.90
27633;DHT22;15046;50.930;13.334;2023-02-17T16:46:49;11.20;99.90
27633;DHT22;15046;50.930;13.334;2023-02-17T16:49:43;11.20;99.90
27633;DHT22;15046;50.930;13.334;2023-02-17T16:52:25;11.20;99.90
27633;DHT22;15046;50.930;13.334;2023-02-17T16:54:52;11.20;99.90
27633;DHT22;15046;50.930;13.334;2023-02-17T16:57:18;11.20;99.90
27633;DHT22;15046;50.930;13.334;2023-02-17T16:59:45;11.20;99.90
27633;DHT22;15046;50.930;13.334;2023-02-17T17:02:11;11.30;99.90
27633;DHT22;15046;50.930;13.334;2023-02-17T17:04:37;11.30;99.90
27633;DHT22;15046;50.930;13.334;2023-02-17T17:07:03;11.30;99.90
27633;DHT22;15046;50.930;13.334;2023-02-17T17:09:29;11.30;99.90
27633;DHT22;15046;50.930;13.334;2023-02-17T17:11:55;11.30;99.90
27633;DHT22;15046;50.930;13.334;2023-02-17T17:14:21;11.30;99.90
27633;DHT22;15046;50.930;13.334;2023-02-17T17:16:54;11.30;99.90
27633;DHT22;15046;50.930;13.334;2023-02-17T17:19:21;11.30;99.90
27633;DHT22;15046;50.930;13.334;2023-02-17T17:21:47;11.30;99.90